Toledo, Iowa
Current Conditions -  °F | °C
As of 11:53 PM on Wednesday 26 Nov 2014 (Local Time) from KMIW Reporting Station
Overcast Overcast  
Wind Chill:   Ceiling: 1400
Heat Index: 22°   Visibility: 9mi
Dew Point: 18°   Wind: 16mph
Humidity: 85%   Direction: 330°NNW
Pressure: 30.35"   Gusts: NA
Location:  42°N, 92.58°W
Report Text: KMIW 270553Z AUTO 33014KT 9SM BKN014 BKN019 OVC024 M06/M08 A3035 RMK AO2 SLP290 60000 T10561078 11022 21056 410061056 53017
Loading
Personal Weather Stations






























Interactive Weather Map New forecast layout! Learn more

10-Day Weather Forecast

Advertisements
Track Severe Weather on mobile